Time;durP1;ratioP1;P1;durP2;ratioP2;P2;SDS_P1;SDS_P2;PMS_P1;PMS_P2;Temp;Humidity;BMP_temperature;BMP_pressure;BME280_temperature;BME280_humidity;BME280_pressure;Samples;Min_cycle;Max_cycle;Signal;HPM_P1;HPM_P2
2022/12/08 00:01:38;;;;;;;78.78;17.63;;;;;;;;;;5074527;28;20206;-77
2022/12/08 00:04:06;;;;;;;75.53;14.95;;;;;;;;;;5074829;28;20320;-77
2022/12/08 00:09:22;;;;;;;78.40;17.05;;;;;;;;;;5073610;28;20272;-77
2022/12/08 00:11:49;;;;;;;79.20;17.20;;;;;;;;;;5074397;28;20293;-77
2022/12/08 00:14:16;;;;;;;79.75;18.45;;;;;;;;;;5074140;28;20215;-77
2022/12/08 00:16:43;;;;;;;76.72;16.92;;;;;;;;;;5074768;28;20214;-77
2022/12/08 00:19:10;;;;;;;79.22;17.75;;;;;;;;;;5073857;28;20238;-77
2022/12/08 00:21:37;;;;;;;74.82;15.55;;;;;;;;;;5075036;28;20230;-77
2022/12/08 00:24:05;;;;;;;81.43;17.88;;;;;;;;;;5074697;28;20206;-77
2022/12/08 00:26:33;;;;;;;82.22;19.50;;;;;;;;;;5075772;28;20236;-77
2022/12/08 00:29:00;;;;;;;83.05;17.33;;;;;;;;;;5074502;28;20210;-77
2022/12/08 00:31:27;;;;;;;78.78;17.65;;;;;;;;;;5075633;28;20207;-77
2022/12/08 00:33:55;;;;;;;78.25;16.58;;;;;;;;;;5075212;28;20212;-77
2022/12/08 00:36:22;;;;;;;81.05;19.13;;;;;;;;;;5074884;28;20225;-77
2022/12/08 00:38:49;;;;;;;83.63;18.98;;;;;;;;;;5073567;28;20210;-77
2022/12/08 00:41:17;;;;;;;79.03;17.45;;;;;;;;;;5074243;28;20242;-77
2022/12/08 00:43:45;;;;;;;79.40;17.60;;;;;;;;;;5074019;28;20216;-77
2022/12/08 00:46:13;;;;;;;76.75;16.30;;;;;;;;;;5073860;28;20205;-77
2022/12/08 00:48:40;;;;;;;79.35;17.17;;;;;;;;;;5073033;28;20300;-77
2022/12/08 00:51:07;;;;;;;75.85;16.08;;;;;;;;;;5073805;28;20316;-77
2022/12/08 00:53:34;;;;;;;81.82;17.33;;;;;;;;;;5073960;28;20206;-77
2022/12/08 00:56:01;;;;;;;77.78;18.65;;;;;;;;;;5073730;28;20619;-77
2022/12/08 00:58:28;;;;;;;79.43;18.58;;;;;;;;;;5073355;28;20207;-77
2022/12/08 01:00:57;;;;;;;80.95;17.30;;;;;;;;;;5072824;28;20226;-77
2022/12/08 01:03:24;;;;;;;75.63;15.88;;;;;;;;;;5073636;28;20605;-77
2022/12/08 01:05:51;;;;;;;80.07;16.42;;;;;;;;;;5073821;28;20568;-77
2022/12/08 01:08:18;;;;;;;75.78;16.35;;;;;;;;;;5073409;28;20300;-77
2022/12/08 01:10:45;;;;;;;84.55;18.08;;;;;;;;;;5072718;28;20232;-77
2022/12/08 01:13:13;;;;;;;81.63;20.60;;;;;;;;;;5073166;28;20239;-77
2022/12/08 01:15:40;;;;;;;83.15;19.42;;;;;;;;;;5073118;28;20259;-78
2022/12/08 01:18:08;;;;;;;82.18;19.65;;;;;;;;;;5074767;28;20211;-78
2022/12/08 01:20:35;;;;;;;78.93;18.42;;;;;;;;;;5073897;28;20236;-77
2022/12/08 01:23:02;;;;;;;80.80;19.30;;;;;;;;;;5074590;28;20647;-77
2022/12/08 01:25:29;;;;;;;76.68;18.23;;;;;;;;;;5074672;28;20205;-78
2022/12/08 01:27:57;;;;;;;76.20;17.10;;;;;;;;;;5074044;28;20218;-78
2022/12/08 01:30:24;;;;;;;80.15;16.92;;;;;;;;;;5073235;28;20226;-78
2022/12/08 01:32:51;;;;;;;76.82;18.15;;;;;;;;;;5072779;28;20295;-77
2022/12/08 01:35:19;;;;;;;79.18;16.88;;;;;;;;;;5072978;28;20316;-77
2022/12/08 01:37:47;;;;;;;75.10;15.82;;;;;;;;;;5073415;28;20209;-78
2022/12/08 01:40:14;;;;;;;79.25;18.83;;;;;;;;;;5074956;28;20225;-78
2022/12/08 01:42:41;;;;;;;74.28;17.27;;;;;;;;;;5074389;28;20211;-78
2022/12/08 01:45:14;;;;;;;78.70;16.83;;;;;;;;;;5074100;28;20210;-77
2022/12/08 01:47:42;;;;;;;76.80;16.00;;;;;;;;;;5073459;28;20212;-78
2022/12/08 01:50:11;;;;;;;74.30;15.95;;;;;;;;;;5073193;28;20232;-78
2022/12/08 01:52:41;;;;;;;79.22;16.63;;;;;;;;;;5073531;28;20734;-78
2022/12/08 01:55:11;;;;;;;76.85;14.57;;;;;;;;;;5073272;28;20742;-77
2022/12/08 01:57:41;;;;;;;73.88;16.15;;;;;;;;;;5073687;28;20209;-78
2022/12/08 02:00:09;;;;;;;74.15;15.32;;;;;;;;;;5073518;28;20319;-78
2022/12/08 02:02:40;;;;;;;79.60;16.00;;;;;;;;;;5074323;28;20211;-78
2022/12/08 02:05:07;;;;;;;76.07;16.05;;;;;;;;;;5074194;28;20296;-78
2022/12/08 02:07:36;;;;;;;75.80;15.38;;;;;;;;;;5074018;28;20577;-78
2022/12/08 02:10:05;;;;;;;75.18;15.95;;;;;;;;;;5073174;28;20259;-78
2022/12/08 02:12:32;;;;;;;78.55;16.15;;;;;;;;;;5073513;28;20212;-78
2022/12/08 02:15:00;;;;;;;73.82;16.20;;;;;;;;;;5074298;28;20223;-78
2022/12/08 02:17:34;;;;;;;77.40;16.55;;;;;;;;;;5073875;28;20213;-78
2022/12/08 02:20:16;;;;;;;77.90;17.23;;;;;;;;;;5072718;28;20232;-78
2022/12/08 02:22:48;;;;;;;75.88;16.15;;;;;;;;;;5071973;28;20208;-77
2022/12/08 02:25:20;;;;;;;73.75;15.25;;;;;;;;;;5073761;28;20207;-78
2022/12/08 02:27:53;;;;;;;73.95;14.82;;;;;;;;;;5070093;28;20269;-77
2022/12/08 02:30:22;;;;;;;77.40;16.50;;;;;;;;;;5072430;28;20614;-77
2022/12/08 02:33:10;;;;;;;76.60;16.08;;;;;;;;;;5073395;28;20204;-78
2022/12/08 02:35:40;;;;;;;79.50;18.13;;;;;;;;;;5074648;28;20320;-78
2022/12/08 02:38:10;;;;;;;78.03;15.52;;;;;;;;;;5074232;28;20209;-78
2022/12/08 02:40:40;;;;;;;77.85;17.10;;;;;;;;;;5074946;28;20229;-78
2022/12/08 02:43:09;;;;;;;76.18;15.80;;;;;;;;;;5075064;28;20700;-78
2022/12/08 02:45:39;;;;;;;76.63;16.00;;;;;;;;;;5074642;28;20205;-78
2022/12/08 02:48:07;;;;;;;74.97;15.07;;;;;;;;;;5072702;28;20294;-77
2022/12/08 02:50:34;;;;;;;77.07;16.70;;;;;;;;;;5070683;28;20308;-75
2022/12/08 02:53:02;;;;;;;80.78;16.77;;;;;;;;;;5071883;28;20583;-75
2022/12/08 02:55:34;;;;;;;80.15;16.42;;;;;;;;;;5071674;28;20571;-75
2022/12/08 02:58:16;;;;;;;78.53;18.17;;;;;;;;;;5072000;28;20288;-75
2022/12/08 03:00:49;;;;;;;80.75;16.45;;;;;;;;;;5070835;28;20256;-76
2022/12/08 03:03:20;;;;;;;78.65;16.92;;;;;;;;;;5071546;28;20205;-75
2022/12/08 03:05:56;;;;;;;75.75;16.38;;;;;;;;;;5071782;28;20208;-75
2022/12/08 03:08:28;;;;;;;75.38;16.08;;;;;;;;;;5071355;28;20690;-75
2022/12/08 03:10:58;;;;;;;80.03;15.90;;;;;;;;;;5070955;28;20792;-76
2022/12/08 03:13:27;;;;;;;79.47;18.13;;;;;;;;;;5071201;28;20212;-76
2022/12/08 03:15:55;;;;;;;73.82;16.45;;;;;;;;;;5071458;28;20231;-76
2022/12/08 03:18:24;;;;;;;74.03;15.40;;;;;;;;;;5071292;28;20211;-76
2022/12/08 03:20:51;;;;;;;79.55;16.15;;;;;;;;;;5071010;28;20315;-76
2022/12/08 03:23:19;;;;;;;76.40;15.88;;;;;;;;;;5071532;28;20216;-76
2022/12/08 03:25:50;;;;;;;75.50;16.27;;;;;;;;;;5073761;28;20220;-76
2022/12/08 03:28:17;;;;;;;78.40;15.15;;;;;;;;;;5075629;28;20593;-76
2022/12/08 03:30:48;;;;;;;75.72;15.55;;;;;;;;;;5074380;28;20312;-76
2022/12/08 03:33:17;;;;;;;79.63;14.80;;;;;;;;;;5075034;28;20558;-76
2022/12/08 03:35:44;;;;;;;73.00;14.57;;;;;;;;;;5074884;28;20225;-76
2022/12/08 03:38:13;;;;;;;76.80;15.68;;;;;;;;;;5074739;28;20205;-76
2022/12/08 03:40:40;;;;;;;76.80;14.48;;;;;;;;;;5073902;28;20760;-76
2022/12/08 03:43:09;;;;;;;72.55;15.10;;;;;;;;;;5074874;28;20232;-76
2022/12/08 03:45:36;;;;;;;73.97;14.38;;;;;;;;;;5074493;28;20688;-76
2022/12/08 03:48:03;;;;;;;77.53;16.38;;;;;;;;;;5075043;28;20568;-77
2022/12/08 03:50:30;;;;;;;76.95;14.70;;;;;;;;;;5075225;28;20312;-78
2022/12/08 03:52:57;;;;;;;73.40;14.35;;;;;;;;;;5076606;28;20215;-78
2022/12/08 03:55:24;;;;;;;76.97;14.68;;;;;;;;;;5076560;28;20470;-78
2022/12/08 03:57:52;;;;;;;74.30;15.50;;;;;;;;;;5076597;28;20687;-78
2022/12/08 04:00:20;;;;;;;76.85;16.15;;;;;;;;;;5075117;28;20232;-76
2022/12/08 04:02:47;;;;;;;74.07;14.40;;;;;;;;;;5074437;28;20685;-77
2022/12/08 04:05:14;;;;;;;78.70;15.30;;;;;;;;;;5074235;28;20205;-77
2022/12/08 04:07:42;;;;;;;75.55;14.65;;;;;;;;;;5074314;28;20296;-77
2022/12/08 04:10:10;;;;;;;72.07;14.20;;;;;;;;;;5073887;28;20743;-77
2022/12/08 04:12:37;;;;;;;82.95;17.20;;;;;;;;;;5074679;28;20216;-77
2022/12/08 04:15:04;;;;;;;76.22;15.18;;;;;;;;;;5075111;28;20227;-78
2022/12/08 04:17:32;;;;;;;74.45;12.90;;;;;;;;;;5075834;28;20205;-78
2022/12/08 04:20:00;;;;;;;73.13;13.95;;;;;;;;;;5074888;28;20221;-77
2022/12/08 04:22:27;;;;;;;76.25;15.65;;;;;;;;;;5075260;28;20224;-77
2022/12/08 04:24:54;;;;;;;74.35;15.50;;;;;;;;;;5074562;28;20215;-77
2022/12/08 04:27:21;;;;;;;73.15;14.50;;;;;;;;;;5073823;28;20542;-77
2022/12/08 04:29:48;;;;;;;77.07;14.90;;;;;;;;;;5073451;28;20225;-77
2022/12/08 04:32:15;;;;;;;74.88;16.05;;;;;;;;;;5073723;28;20209;-77
2022/12/08 04:34:44;;;;;;;73.05;14.65;;;;;;;;;;5073636;28;20231;-77
2022/12/08 04:37:11;;;;;;;75.70;14.48;;;;;;;;;;5073296;28;20582;-77
2022/12/08 04:39:38;;;;;;;75.45;14.95;;;;;;;;;;5073114;28;20319;-76
2022/12/08 04:42:05;;;;;;;72.53;14.50;;;;;;;;;;5073609;28;20205;-76
2022/12/08 04:44:32;;;;;;;72.80;14.77;;;;;;;;;;5073557;28;20206;-76
2022/12/08 04:46:59;;;;;;;74.47;13.90;;;;;;;;;;5073252;28;20207;-76
2022/12/08 04:49:26;;;;;;;78.47;14.65;;;;;;;;;;5072993;28;20228;-76
2022/12/08 04:51:55;;;;;;;75.88;14.77;;;;;;;;;;5074424;28;20291;-77
2022/12/08 04:54:22;;;;;;;78.60;15.40;;;;;;;;;;5075729;28;20299;-78
2022/12/08 04:56:49;;;;;;;78.00;15.77;;;;;;;;;;5075173;28;20221;-77
2022/12/08 04:59:16;;;;;;;76.50;15.32;;;;;;;;;;5074101;28;20320;-78
2022/12/08 05:01:43;;;;;;;77.18;15.20;;;;;;;;;;5073261;28;20205;-76
2022/12/08 05:04:10;;;;;;;78.50;15.65;;;;;;;;;;5073354;28;20201;-77
2022/12/08 05:06:37;;;;;;;74.75;14.40;;;;;;;;;;5073217;28;20563;-77
2022/12/08 05:09:06;;;;;;;75.85;15.25;;;;;;;;;;5072314;28;20211;-77
2022/12/08 05:11:33;;;;;;;76.88;15.98;;;;;;;;;;5076589;28;20208;-78
2022/12/08 05:14:00;;;;;;;78.57;17.00;;;;;;;;;;5077234;28;20216;-78
2022/12/08 05:16:28;;;;;;;77.50;15.82;;;;;;;;;;5076157;28;20640;-78
2022/12/08 05:18:55;;;;;;;79.82;17.27;;;;;;;;;;5072182;28;20211;-77
2022/12/08 05:21:22;;;;;;;77.63;16.95;;;;;;;;;;5073248;28;20211;-77
2022/12/08 05:23:49;;;;;;;77.07;14.75;;;;;;;;;;5072539;28;20209;-77
2022/12/08 05:26:17;;;;;;;77.70;15.75;;;;;;;;;;5072825;28;20592;-77
2022/12/08 05:28:44;;;;;;;74.05;14.60;;;;;;;;;;5072153;28;20211;-77
2022/12/08 05:31:12;;;;;;;78.53;16.30;;;;;;;;;;5072835;28;20347;-77
2022/12/08 05:33:39;;;;;;;79.47;14.45;;;;;;;;;;5072949;28;20205;-77
2022/12/08 05:36:07;;;;;;;83.50;16.15;;;;;;;;;;5072811;28;20233;-77
2022/12/08 05:38:34;;;;;;;79.07;14.20;;;;;;;;;;5071743;28;20209;-77
2022/12/08 05:41:01;;;;;;;82.95;16.35;;;;;;;;;;5072525;28;20287;-77
2022/12/08 05:43:29;;;;;;;76.88;15.40;;;;;;;;;;5072328;28;20211;-77
2022/12/08 05:45:57;;;;;;;80.53;16.60;;;;;;;;;;5072896;28;20207;-77
2022/12/08 05:48:24;;;;;;;77.93;15.77;;;;;;;;;;5071680;28;20563;-77
2022/12/08 05:50:51;;;;;;;85.13;16.58;;;;;;;;;;5071705;28;20311;-77
2022/12/08 05:53:19;;;;;;;103.90;19.52;;;;;;;;;;5072450;28;20209;-77
2022/12/08 05:55:46;;;;;;;156.73;21.25;;;;;;;;;;5072483;28;20212;-77
2022/12/08 05:58:15;;;;;;;93.28;17.23;;;;;;;;;;5072319;28;20228;-76
2022/12/08 06:00:43;;;;;;;89.18;18.35;;;;;;;;;;5074032;28;20232;-78
2022/12/08 06:03:11;;;;;;;146.90;25.30;;;;;;;;;;5075241;28;20693;-78
2022/12/08 06:05:38;;;;;;;83.30;17.95;;;;;;;;;;5075024;28;20205;-78
2022/12/08 06:08:05;;;;;;;103.88;17.73;;;;;;;;;;5074651;28;20563;-78
2022/12/08 06:10:33;;;;;;;82.43;16.67;;;;;;;;;;5073180;28;20604;-75
2022/12/08 06:13:00;;;;;;;78.95;17.42;;;;;;;;;;5071959;28;20212;-76
2022/12/08 06:15:27;;;;;;;80.68;18.13;;;;;;;;;;5071876;28;20677;-76
2022/12/08 06:17:56;;;;;;;78.35;16.27;;;;;;;;;;5072104;28;20225;-77
2022/12/08 06:20:23;;;;;;;79.15;17.45;;;;;;;;;;5073080;28;20312;-78
2022/12/08 06:22:50;;;;;;;83.50;17.70;;;;;;;;;;5073037;28;20642;-77
2022/12/08 06:25:17;;;;;;;82.13;18.05;;;;;;;;;;5073215;28;20291;-77
2022/12/08 06:27:44;;;;;;;78.45;16.80;;;;;;;;;;5073293;28;20201;-77
2022/12/08 06:30:12;;;;;;;82.07;17.58;;;;;;;;;;5071491;28;20229;-75
2022/12/08 06:32:39;;;;;;;80.28;16.65;;;;;;;;;;5071814;28;20485;-75
2022/12/08 06:35:08;;;;;;;81.72;17.90;;;;;;;;;;5071766;28;20296;-76
2022/12/08 06:37:35;;;;;;;79.28;16.80;;;;;;;;;;5071489;28;20339;-76
2022/12/08 06:40:02;;;;;;;83.65;18.42;;;;;;;;;;5070955;28;20221;-76
2022/12/08 06:42:45;;;;;;;79.68;16.48;;;;;;;;;;5071933;28;20205;-76
2022/12/08 06:45:13;;;;;;;78.47;17.25;;;;;;;;;;5071808;28;20205;-76
2022/12/08 06:47:40;;;;;;;79.68;16.50;;;;;;;;;;5071546;28;20308;-76
2022/12/08 06:50:09;;;;;;;87.63;18.25;;;;;;;;;;5070566;28;20324;-76
2022/12/08 06:52:37;;;;;;;81.03;17.25;;;;;;;;;;5071562;28;20288;-76
2022/12/08 06:55:04;;;;;;;83.18;16.85;;;;;;;;;;5071957;28;20207;-77
2022/12/08 06:57:31;;;;;;;82.63;17.73;;;;;;;;;;5072819;28;20227;-78
2022/12/08 06:59:58;;;;;;;98.80;19.40;;;;;;;;;;5074757;28;20229;-77
2022/12/08 07:02:25;;;;;;;83.47;17.42;;;;;;;;;;5075924;28;20611;-77
2022/12/08 07:04:52;;;;;;;91.15;19.02;;;;;;;;;;5076475;28;20215;-77
2022/12/08 07:07:21;;;;;;;86.05;17.50;;;;;;;;;;5076270;28;20203;-77
2022/12/08 07:09:48;;;;;;;102.95;20.30;;;;;;;;;;5074766;28;20239;-75
2022/12/08 07:12:15;;;;;;;90.45;18.98;;;;;;;;;;5075294;28;20209;-75
2022/12/08 07:14:42;;;;;;;93.43;21.20;;;;;;;;;;5075212;28;20240;-75
2022/12/08 07:17:09;;;;;;;84.85;17.83;;;;;;;;;;5075036;28;20224;-75
2022/12/08 07:19:36;;;;;;;85.30;18.50;;;;;;;;;;5074505;28;20229;-75
2022/12/08 07:22:03;;;;;;;81.93;18.83;;;;;;;;;;5077146;28;20205;-78
2022/12/08 07:24:32;;;;;;;82.50;19.73;;;;;;;;;;5077210;28;20669;-77
2022/12/08 07:26:59;;;;;;;89.43;18.65;;;;;;;;;;5077576;28;20211;-77
2022/12/08 07:29:26;;;;;;;93.95;21.42;;;;;;;;;;5076312;28;20233;-78
2022/12/08 07:31:53;;;;;;;83.18;20.02;;;;;;;;;;5066048;28;20205;-75
2022/12/08 07:34:20;;;;;;;86.63;21.45;;;;;;;;;;5073829;28;20213;-74
2022/12/08 07:36:47;;;;;;;85.90;19.80;;;;;;;;;;5073179;28;20221;-74
2022/12/08 07:39:15;;;;;;;87.75;19.25;;;;;;;;;;5072525;28;20225;-74
2022/12/08 07:41:43;;;;;;;83.68;19.33;;;;;;;;;;5073891;28;20280;-75
2022/12/08 07:44:11;;;;;;;87.13;18.40;;;;;;;;;;5071213;28;20212;-76
2022/12/08 07:46:39;;;;;;;81.40;18.10;;;;;;;;;;5074638;28;20209;-77
2022/12/08 07:49:06;;;;;;;87.53;19.90;;;;;;;;;;5074114;28;20209;-76
2022/12/08 07:51:33;;;;;;;86.38;21.15;;;;;;;;;;5075419;28;20231;-75
2022/12/08 07:54:01;;;;;;;89.50;21.40;;;;;;;;;;5077274;28;20210;-78
2022/12/08 07:56:29;;;;;;;88.95;21.85;;;;;;;;;;5076923;28;20260;-78
2022/12/08 07:58:58;;;;;;;85.10;21.05;;;;;;;;;;5075228;28;20301;-77
2022/12/08 08:01:26;;;;;;;94.90;22.30;;;;;;;;;;5077175;28;20284;-78
2022/12/08 08:03:54;;;;;;;87.10;20.98;;;;;;;;;;5074848;28;20201;-74
2022/12/08 08:06:21;;;;;;;89.25;21.45;;;;;;;;;;5074114;28;20291;-75
2022/12/08 08:08:48;;;;;;;84.93;19.15;;;;;;;;;;5054542;28;20576;-76
2022/12/08 08:11:15;;;;;;;86.30;22.50;;;;;;;;;;5052553;28;20232;-76
2022/12/08 08:13:43;;;;;;;85.47;20.10;;;;;;;;;;5053099;28;20615;-75
2022/12/08 08:16:12;;;;;;;91.55;22.67;;;;;;;;;;5062106;28;20205;-74
2022/12/08 08:18:40;;;;;;;87.25;21.58;;;;;;;;;;5072666;28;20589;-75
2022/12/08 08:21:07;;;;;;;91.07;20.75;;;;;;;;;;5073165;28;20316;-75
2022/12/08 08:23:35;;;;;;;84.50;20.80;;;;;;;;;;5073999;28;20692;-75
2022/12/08 08:26:02;;;;;;;86.63;21.00;;;;;;;;;;5073771;28;20225;-75
2022/12/08 08:28:30;;;;;;;90.25;23.55;;;;;;;;;;5073430;28;20201;-73
2022/12/08 08:30:57;;;;;;;88.57;23.38;;;;;;;;;;5074015;28;20701;-76
2022/12/08 08:33:26;;;;;;;89.07;22.25;;;;;;;;;;5073569;28;20225;-76
2022/12/08 08:35:53;;;;;;;89.75;22.65;;;;;;;;;;5073755;28;20237;-76
2022/12/08 08:38:21;;;;;;;84.43;22.15;;;;;;;;;;5073367;28;20225;-75
2022/12/08 08:40:48;;;;;;;93.95;23.45;;;;;;;;;;5073122;28;20282;-75
2022/12/08 08:43:28;;;;;;;88.78;22.30;;;;;;;;;;5074618;28;20245;-76
2022/12/08 08:45:56;;;;;;;93.55;23.40;;;;;;;;;;5068647;28;20217;-77
2022/12/08 08:48:23;;;;;;;88.60;23.58;;;;;;;;;;5055045;28;20206;-77
2022/12/08 08:50:52;;;;;;;88.85;22.45;;;;;;;;;;5054602;28;20316;-77
2022/12/08 08:53:19;;;;;;;86.70;23.35;;;;;;;;;;5054878;28;20305;-77
2022/12/08 08:55:46;;;;;;;89.55;22.65;;;;;;;;;;5054003;28;20217;-78
2022/12/08 08:58:13;;;;;;;86.57;20.38;;;;;;;;;;5054528;28;20231;-77
2022/12/08 09:00:41;;;;;;;92.93;23.92;;;;;;;;;;5053400;28;20236;-77
2022/12/08 09:03:08;;;;;;;85.63;21.65;;;;;;;;;;5053829;28;20638;-77
2022/12/08 09:05:35;;;;;;;87.20;21.98;;;;;;;;;;5053636;28;20701;-76
2022/12/08 09:08:03;;;;;;;87.13;22.98;;;;;;;;;;5053300;28;20212;-77
2022/12/08 09:10:31;;;;;;;85.70;21.42;;;;;;;;;;5052530;28;20693;-77
2022/12/08 09:12:58;;;;;;;85.63;21.88;;;;;;;;;;5053032;28;20217;-76
2022/12/08 09:15:25;;;;;;;85.45;20.23;;;;;;;;;;5058794;28;20685;-77
2022/12/08 09:17:52;;;;;;;83.50;21.13;;;;;;;;;;5056919;28;20226;-76
2022/12/08 09:20:19;;;;;;;88.63;21.65;;;;;;;;;;5052191;28;20638;-76
2022/12/08 09:22:46;;;;;;;86.40;21.88;;;;;;;;;;5052752;28;20213;-77
2022/12/08 09:25:15;;;;;;;81.40;19.98;;;;;;;;;;5052935;28;20298;-77
2022/12/08 09:27:42;;;;;;;85.55;21.08;;;;;;;;;;5052913;28;20299;-76
2022/12/08 09:30:09;;;;;;;84.68;20.90;;;;;;;;;;5051406;28;20639;-76
2022/12/08 09:32:36;;;;;;;78.45;18.25;;;;;;;;;;5052118;28;20205;-76
2022/12/08 09:35:04;;;;;;;79.40;19.50;;;;;;;;;;5051977;28;20706;-76
2022/12/08 09:37:31;;;;;;;80.95;20.27;;;;;;;;;;5052303;28;20234;-75
2022/12/08 09:39:58;;;;;;;77.90;17.83;;;;;;;;;;5050073;28;20595;-76
2022/12/08 09:42:33;;;;;;;79.28;17.92;;;;;;;;;;5051805;28;20636;-76
2022/12/08 09:45:03;;;;;;;76.35;16.52;;;;;;;;;;5051775;28;20204;-76
2022/12/08 09:47:33;;;;;;;79.05;17.77;;;;;;;;;;5051810;28;20571;-76
2022/12/08 09:50:03;;;;;;;74.07;15.40;;;;;;;;;;5051417;28;20233;-76
2022/12/08 09:52:32;;;;;;;76.30;14.82;;;;;;;;;;5065527;28;20216;-77
2022/12/08 09:55:01;;;;;;;71.93;14.52;;;;;;;;;;5072008;28;20201;-76
2022/12/08 09:57:30;;;;;;;71.88;13.95;;;;;;;;;;5071816;28;20230;-76
2022/12/08 10:00:00;;;;;;;68.50;12.88;;;;;;;;;;5070776;28;20233;-76
2022/12/08 10:02:29;;;;;;;68.20;12.00;;;;;;;;;;5059556;28;20205;-76
2022/12/08 10:04:57;;;;;;;68.25;10.75;;;;;;;;;;5052731;28;20299;-77
2022/12/08 10:07:29;;;;;;;67.85;11.43;;;;;;;;;;5055339;28;20202;-77
2022/12/08 10:10:00;;;;;;;68.07;10.82;;;;;;;;;;5054109;28;20229;-77
2022/12/08 10:12:28;;;;;;;66.07;9.90;;;;;;;;;;5055135;28;20769;-78
2022/12/08 10:15:02;;;;;;;64.17;10.07;;;;;;;;;;5056427;28;20458;-77
2022/12/08 10:17:33;;;;;;;65.70;10.27;;;;;;;;;;5054402;28;20524;-77
2022/12/08 10:20:02;;;;;;;64.37;8.90;;;;;;;;;;5052659;28;20847;-77
2022/12/08 10:22:35;;;;;;;70.87;9.60;;;;;;;;;;5058415;28;20451;-77
2022/12/08 10:25:06;;;;;;;64.80;9.13;;;;;;;;;;5072158;28;20450;-77
2022/12/08 10:27:35;;;;;;;66.63;9.90;;;;;;;;;;5072940;28;20530;-77
2022/12/08 10:30:07;;;;;;;65.07;10.00;;;;;;;;;;5072216;28;20463;-77
2022/12/08 10:32:35;;;;;;;66.50;9.67;;;;;;;;;;5072102;28;20453;-77
2022/12/08 10:35:04;;;;;;;64.80;8.73;;;;;;;;;;5072108;28;20841;-76
2022/12/08 10:37:31;;;;;;;65.00;8.70;;;;;;;;;;5071576;28;20829;-76
2022/12/08 10:40:03;;;;;;;64.17;8.63;;;;;;;;;;5070518;28;20475;-76
2022/12/08 10:42:35;;;;;;;62.53;8.60;;;;;;;;;;5071210;28;20448;-77
2022/12/08 10:45:11;;;;;;;64.60;8.80;;;;;;;;;;5072940;28;20645;-77
2022/12/08 10:47:39;;;;;;;64.67;8.90;;;;;;;;;;5072714;28;20511;-77
2022/12/08 10:50:17;;;;;;;65.47;8.93;;;;;;;;;;5072551;28;20488;-77
2022/12/08 10:52:44;;;;;;;64.70;8.77;;;;;;;;;;5067864;28;20455;-75
2022/12/08 10:55:15;;;;;;;64.20;8.30;;;;;;;;;;5071422;28;20956;-77
2022/12/08 10:57:42;;;;;;;62.00;8.10;;;;;;;;;;5072350;28;20999;-77
2022/12/08 11:00:14;;;;;;;67.40;7.67;;;;;;;;;;5070858;28;20466;-77
2022/12/08 11:02:52;;;;;;;63.40;8.90;;;;;;;;;;5072230;28;20458;-76
2022/12/08 11:05:20;;;;;;;62.37;6.97;;;;;;;;;;5071728;28;20455;-78
2022/12/08 11:07:48;;;;;;;64.20;8.40;;;;;;;;;;5072529;28;20449;-77
2022/12/08 11:10:17;;;;;;;63.57;7.90;;;;;;;;;;5072594;28;20467;-79
2022/12/08 11:12:45;;;;;;;74.23;8.67;;;;;;;;;;5074449;28;20465;-79
2022/12/08 11:15:16;;;;;;;62.07;6.73;;;;;;;;;;5072062;28;20461;-76
2022/12/08 11:17:45;;;;;;;64.20;8.37;;;;;;;;;;5070920;28;20995;-76
2022/12/08 11:20:22;;;;;;;62.77;7.90;;;;;;;;;;5070384;28;20471;-77
2022/12/08 11:22:53;;;;;;;66.60;7.50;;;;;;;;;;5069637;28;20447;-75
2022/12/08 11:25:21;;;;;;;63.77;8.50;;;;;;;;;;5056774;28;20490;-76
2022/12/08 11:27:49;;;;;;;63.77;8.00;;;;;;;;;;5065163;28;20467;-76
2022/12/08 11:30:19;;;;;;;64.13;7.17;;;;;;;;;;5070120;28;20837;-76
2022/12/08 11:32:47;;;;;;;62.83;7.43;;;;;;;;;;5070685;28;20458;-76
2022/12/08 11:35:19;;;;;;;62.87;6.93;;;;;;;;;;5070659;28;20455;-76
2022/12/08 11:37:46;;;;;;;62.83;7.43;;;;;;;;;;5070921;28;20540;-76
2022/12/08 11:40:16;;;;;;;62.70;7.57;;;;;;;;;;5069866;28;20951;-76
2022/12/08 11:42:53;;;;;;;63.03;7.30;;;;;;;;;;5070656;28;20451;-75
2022/12/08 11:45:25;;;;;;;63.67;6.80;;;;;;;;;;5070765;28;20443;-76
2022/12/08 11:47:57;;;;;;;61.90;7.27;;;;;;;;;;5074486;28;20447;-75
2022/12/08 11:50:27;;;;;;;61.50;6.47;;;;;;;;;;5074541;28;20822;-76
2022/12/08 11:52:54;;;;;;;65.60;6.40;;;;;;;;;;5076313;28;20858;-77
2022/12/08 11:55:30;;;;;;;63.40;8.27;;;;;;;;;;5074764;28;20528;-75
2022/12/08 11:57:58;;;;;;;65.50;7.60;;;;;;;;;;5074426;28;20910;-76
2022/12/08 12:00:26;;;;;;;63.67;8.30;;;;;;;;;;5073094;28;20546;-75
2022/12/08 12:02:57;;;;;;;67.93;10.73;;;;;;;;;;5074115;28;20454;-76
2022/12/08 12:05:30;;;;;;;65.53;10.47;;;;;;;;;;5074261;28;20458;-76
2022/12/08 12:08:05;;;;;;;70.43;10.70;;;;;;;;;;5074171;28;20450;-76
2022/12/08 12:10:37;;;;;;;75.27;15.13;;;;;;;;;;5073663;28;20554;-75
2022/12/08 12:13:19;;;;;;;64.10;8.90;;;;;;;;;;5074736;28;20530;-75
2022/12/08 12:16:08;;;;;;;69.47;12.50;;;;;;;;;;5074564;28;20448;-75
2022/12/08 12:18:44;;;;;;;63.60;7.60;;;;;;;;;;5073274;28;20479;-75
2022/12/08 12:21:15;;;;;;;62.90;7.40;;;;;;;;;;5074258;28;20506;-75
2022/12/08 12:23:43;;;;;;;63.60;7.30;;;;;;;;;;5074144;28;20451;-75
2022/12/08 12:26:17;;;;;;;69.27;12.43;;;;;;;;;;5074130;28;20455;-75
2022/12/08 12:28:48;;;;;;;63.57;7.60;;;;;;;;;;5073375;28;20573;-75
2022/12/08 12:31:17;;;;;;;63.77;8.50;;;;;;;;;;5073854;28;20467;-75
2022/12/08 12:33:47;;;;;;;62.17;6.20;;;;;;;;;;5073773;28;20451;-75
2022/12/08 12:36:14;;;;;;;62.37;7.47;;;;;;;;;;5074033;28;20539;-75
2022/12/08 12:39:05;;;;;;;61.15;5.90;;;;;;;;;;5072917;28;20479;-75
2022/12/08 12:41:35;;;;;;;61.97;5.90;;;;;;;;;;5073705;28;20197;-75
2022/12/08 12:44:17;;;;;;;63.80;7.77;;;;;;;;;;5073609;28;20443;-75
2022/12/08 12:46:55;;;;;;;62.05;7.03;;;;;;;;;;5071602;28;20455;-75
2022/12/08 12:49:42;;;;;;;63.67;8.07;;;;;;;;;;5073019;28;20336;-75
2022/12/08 12:52:24;;;;;;;62.40;6.90;;;;;;;;;;5074059;28;20451;-75
2022/12/08 12:55:06;;;;;;;65.07;7.00;;;;;;;;;;5073767;28;20526;-75
2022/12/08 12:57:36;;;;;;;63.17;7.70;;;;;;;;;;5072753;28;20470;-75
2022/12/08 13:00:07;;;;;;;62.57;7.57;;;;;;;;;;5072662;28;20570;-75
2022/12/08 13:02:38;;;;;;;63.57;7.07;;;;;;;;;;5073581;28;20458;-76
2022/12/08 13:05:09;;;;;;;61.97;7.07;;;;;;;;;;5073259;28;20534;-76
2022/12/08 13:07:41;;;;;;;65.90;7.80;;;;;;;;;;5073501;28;20871;-76
2022/12/08 13:10:14;;;;;;;61.37;6.70;;;;;;;;;;5072491;28;20486;-76
2022/12/08 13:12:43;;;;;;;61.57;6.40;;;;;;;;;;5073383;28;20865;-76
2022/12/08 13:15:17;;;;;;;63.77;7.87;;;;;;;;;;5073155;28;20455;-76
2022/12/08 13:17:45;;;;;;;67.20;10.00;;;;;;;;;;5073453;28;20538;-76
2022/12/08 13:20:18;;;;;;;63.00;7.00;;;;;;;;;;5072518;28;20467;-76
2022/12/08 13:22:47;;;;;;;61.30;6.43;;;;;;;;;;5073174;28;20458;-76
2022/12/08 13:25:32;;;;;;;64.37;7.33;;;;;;;;;;5072872;28;20450;-76
2022/12/08 13:28:09;;;;;;;65.60;11.70;;;;;;;;;;5072768;28;20550;-76
2022/12/08 13:30:43;;;;;;;61.60;6.73;;;;;;;;;;5063533;28;20470;-76
2022/12/08 13:33:16;;;;;;;62.20;7.03;;;;;;;;;;5053013;28;20459;-76
2022/12/08 13:35:47;;;;;;;63.30;6.90;;;;;;;;;;5052841;28;20456;-76
2022/12/08 13:38:16;;;;;;;62.00;6.90;;;;;;;;;;5052721;28;20565;-76
2022/12/08 13:40:44;;;;;;;63.20;7.83;;;;;;;;;;5051977;28;20476;-76
2022/12/08 13:43:17;;;;;;;67.23;7.07;;;;;;;;;;5052902;28;20455;-76
2022/12/08 13:45:45;;;;;;;64.40;9.43;;;;;;;;;;5055725;28;20459;-77
2022/12/08 13:48:14;;;;;;;63.20;6.95;;;;;;;;;;5055787;28;20197;-77
2022/12/08 13:50:44;;;;;;;68.55;8.90;;;;;;;;;;5053883;28;20234;-77
2022/12/08 13:53:14;;;;;;;61.60;6.97;;;;;;;;;;5055071;28;20202;-77
2022/12/08 13:55:43;;;;;;;64.20;8.27;;;;;;;;;;5052611;28;20821;-77
2022/12/08 13:58:18;;;;;;;64.03;7.67;;;;;;;;;;5052961;28;20838;-74
2022/12/08 14:00:54;;;;;;;62.92;6.85;;;;;;;;;;5051794;28;20468;-77
2022/12/08 14:03:21;;;;;;;63.40;6.30;;;;;;;;;;5052730;28;20205;-74
2022/12/08 14:05:48;;;;;;;62.55;7.18;;;;;;;;;;5052473;28;20212;-74
2022/12/08 14:08:19;;;;;;;62.72;7.45;;;;;;;;;;5051770;28;20207;-75
2022/12/08 14:10:48;;;;;;;64.17;9.20;;;;;;;;;;5051479;28;20226;-75
2022/12/08 14:13:15;;;;;;;61.88;6.68;;;;;;;;;;5052169;28;20448;-75
2022/12/08 14:15:43;;;;;;;63.65;6.50;;;;;;;;;;5052047;28;20208;-74
2022/12/08 14:18:23;;;;;;;63.45;7.07;;;;;;;;;;5052092;28;20297;-75
2022/12/08 14:20:59;;;;;;;61.83;6.97;;;;;;;;;;5051389;28;20327;-75
2022/12/08 14:23:26;;;;;;;61.90;6.70;;;;;;;;;;5052018;28;20212;-74
2022/12/08 14:25:54;;;;;;;61.47;6.50;;;;;;;;;;5051824;28;20216;-75
2022/12/08 14:28:22;;;;;;;62.55;6.63;;;;;;;;;;5051660;28;20745;-75
2022/12/08 14:30:52;;;;;;;61.88;6.65;;;;;;;;;;5051278;28;20253;-74
2022/12/08 14:33:19;;;;;;;62.05;6.93;;;;;;;;;;5051904;28;20557;-75
2022/12/08 14:35:50;;;;;;;64.47;7.75;;;;;;;;;;5051682;28;20215;-75